createdAt,value
2022-11-27T00:01:25.752Z,3.47
2022-11-27T00:03:54.520Z,4.30
2022-11-27T00:06:23.423Z,4.05
2022-11-27T00:08:52.904Z,4.32
2022-11-27T00:11:21.335Z,4.15
2022-11-27T00:13:49.091Z,4.07
2022-11-27T00:16:17.136Z,4.03
2022-11-27T00:18:45.110Z,4.18
2022-11-27T00:21:14.605Z,3.88
2022-11-27T00:23:42.348Z,4.72
2022-11-27T00:26:11.734Z,3.92
2022-11-27T00:28:39.757Z,4.30
2022-11-27T00:31:10.120Z,3.95
2022-11-27T00:33:38.430Z,4.03
2022-11-27T00:36:09.867Z,4.28
2022-11-27T00:38:39.185Z,3.90
2022-11-27T00:41:07.738Z,4.25
2022-11-27T00:43:43.944Z,3.78
2022-11-27T00:46:12.029Z,3.45
2022-11-27T00:48:39.826Z,3.65
2022-11-27T00:51:08.918Z,3.60
2022-11-27T00:53:37.015Z,3.80
2022-11-27T00:56:05.399Z,4.00
2022-11-27T00:58:33.249Z,4.07
2022-11-27T01:01:03.053Z,4.07
2022-11-27T01:03:31.672Z,4.28
2022-11-27T01:06:02.838Z,3.85
2022-11-27T01:08:30.467Z,4.25
2022-11-27T01:11:21.978Z,4.18
2022-11-27T01:13:50.260Z,3.67
2022-11-27T01:16:25.826Z,3.78
2022-11-27T01:18:57.646Z,3.22
2022-11-27T01:21:31.157Z,3.75
2022-11-27T01:27:33.678Z,3.63
2022-11-27T01:30:01.449Z,4.18
2022-11-27T01:32:30.244Z,4.90
2022-11-27T01:34:57.725Z,3.15
2022-11-27T01:37:25.220Z,3.70
2022-11-27T01:39:53.033Z,3.92
2022-11-27T01:42:20.679Z,3.58
2022-11-27T01:44:51.142Z,4.03
2022-11-27T01:47:21.878Z,4.85
2022-11-27T01:49:53.032Z,4.53
2022-11-27T01:52:21.947Z,3.88
2022-11-27T01:54:52.998Z,4.45
2022-11-27T01:57:22.084Z,4.43
2022-11-27T01:59:50.353Z,4.70
2022-11-27T02:02:17.871Z,4.63
2022-11-27T02:04:45.442Z,4.35
2022-11-27T02:07:14.456Z,4.47
2022-11-27T02:09:42.357Z,4.82
2022-11-27T02:12:16.667Z,4.55
2022-11-27T02:14:49.799Z,4.65
2022-11-27T02:17:19.806Z,5.10
2022-11-27T02:19:56.549Z,5.32
2022-11-27T02:22:33.315Z,5.18
2022-11-27T02:25:03.860Z,4.70
2022-11-27T02:27:43.193Z,4.45
2022-11-27T02:30:12.338Z,4.95
2022-11-27T02:32:42.656Z,4.80
2022-11-27T02:35:13.954Z,4.97
2022-11-27T02:37:46.040Z,4.70
2022-11-27T02:40:15.211Z,5.45
2022-11-27T02:42:49.048Z,4.97
2022-11-27T02:45:19.708Z,4.68
2022-11-27T02:47:48.266Z,5.65
2022-11-27T02:50:17.737Z,5.82
2022-11-27T02:52:45.882Z,4.75
2022-11-27T02:55:15.648Z,4.18
2022-11-27T02:57:44.754Z,4.18
2022-11-27T03:00:13.157Z,4.63
2022-11-27T03:02:43.511Z,4.03
2022-11-27T03:05:12.577Z,4.72
2022-11-27T03:07:41.293Z,5.00
2022-11-27T03:10:11.737Z,4.57
2022-11-27T03:12:39.447Z,4.63
2022-11-27T03:15:07.962Z,4.65
2022-11-27T03:17:51.697Z,4.65
2022-11-27T03:20:21.933Z,4.60
2022-11-27T03:22:49.677Z,4.68
2022-11-27T03:25:17.259Z,4.53
2022-11-27T03:27:47.233Z,4.45
2022-11-27T03:30:15.273Z,5.22
2022-11-27T03:32:44.482Z,4.88
2022-11-27T03:35:35.567Z,6.03
2022-11-27T03:38:03.310Z,4.45
2022-11-27T03:40:34.475Z,5.65
2022-11-27T03:43:05.732Z,4.40
2022-11-27T03:45:37.186Z,4.45
2022-11-27T03:48:15.518Z,4.80
2022-11-27T03:50:47.501Z,4.60
2022-11-27T03:53:20.032Z,4.30
2022-11-27T03:55:50.686Z,5.07
2022-11-27T03:58:22.088Z,4.50
2022-11-27T04:00:52.252Z,4.72
2022-11-27T04:03:25.079Z,4.50
2022-11-27T04:05:52.724Z,4.55
2022-11-27T04:08:20.761Z,4.60
2022-11-27T04:10:48.402Z,4.50
2022-11-27T04:13:16.555Z,4.80
2022-11-27T04:15:44.216Z,4.50
2022-11-27T04:18:12.074Z,4.43
2022-11-27T04:20:41.183Z,5.63
2022-11-27T04:23:08.966Z,4.70
2022-11-27T04:25:36.726Z,5.00
2022-11-27T04:28:04.492Z,5.45
2022-11-27T04:30:32.434Z,5.20
2022-11-27T04:33:00.556Z,4.82
2022-11-27T04:35:28.436Z,4.55
2022-11-27T04:38:01.439Z,4.30
2022-11-27T04:40:29.327Z,5.43
2022-11-27T04:42:57.006Z,5.20
2022-11-27T04:45:24.690Z,4.53
2022-11-27T04:47:52.587Z,4.18
2022-11-27T04:50:20.405Z,5.65
2022-11-27T04:52:47.980Z,5.43
2022-11-27T04:55:17.108Z,4.40
2022-11-27T04:57:44.862Z,4.47
2022-11-27T05:00:13.032Z,5.55
2022-11-27T05:02:40.851Z,4.88
2022-11-27T05:05:08.853Z,4.82
2022-11-27T05:07:37.218Z,5.07
2022-11-27T05:10:05.641Z,4.82
2022-11-27T05:12:34.776Z,4.90
2022-11-27T05:15:04.665Z,5.15
2022-11-27T05:17:32.681Z,5.28
2022-11-27T05:20:00.330Z,4.90
2022-11-27T05:22:28.015Z,4.32
2022-11-27T05:24:55.696Z,4.35
2022-11-27T05:27:23.417Z,4.88
2022-11-27T05:29:52.388Z,4.78
2022-11-27T05:32:20.019Z,4.57
2022-11-27T05:34:48.763Z,3.65
2022-11-27T05:37:19.499Z,4.22
2022-11-27T05:39:47.816Z,5.72
2022-11-27T05:42:17.324Z,4.97
2022-11-27T05:44:45.381Z,4.80
2022-11-27T05:47:14.688Z,5.22
2022-11-27T05:49:42.357Z,3.92
2022-11-27T05:52:09.915Z,4.25
2022-11-27T05:54:37.583Z,4.63
2022-11-27T05:57:06.722Z,4.28
2022-11-27T05:59:34.511Z,4.80
2022-11-27T06:02:02.142Z,5.07
2022-11-27T06:04:33.535Z,4.90
2022-11-27T06:07:01.092Z,5.32
2022-11-27T06:09:28.582Z,4.57
2022-11-27T06:11:56.279Z,4.82
2022-11-27T06:14:24.105Z,5.18
2022-11-27T06:16:51.695Z,4.20
2022-11-27T06:19:21.816Z,4.63
2022-11-27T06:21:50.661Z,5.30
2022-11-27T06:24:18.249Z,4.40
2022-11-27T06:26:45.864Z,5.57
2022-11-27T06:29:13.433Z,4.75
2022-11-27T06:31:41.197Z,4.43
2022-11-27T06:34:08.749Z,4.03
2022-11-27T06:36:36.830Z,4.57
2022-11-27T06:39:06.727Z,4.80
2022-11-27T06:41:34.386Z,5.07
2022-11-27T06:44:02.330Z,4.50
2022-11-27T06:46:30.444Z,4.93
2022-11-27T06:48:58.520Z,5.35
2022-11-27T06:51:27.244Z,6.22
2022-11-27T06:53:54.841Z,5.03
2022-11-27T06:56:24.991Z,5.03
2022-11-27T06:58:53.070Z,4.82
2022-11-27T07:01:20.996Z,5.32
2022-11-27T07:03:48.849Z,4.30
2022-11-27T07:06:18.925Z,4.70
2022-11-27T07:08:46.555Z,5.13
2022-11-27T07:11:15.058Z,4.30
2022-11-27T07:13:44.295Z,4.43
2022-11-27T07:16:12.992Z,4.13
2022-11-27T07:18:41.957Z,4.22
2022-11-27T07:21:09.847Z,5.20
2022-11-27T07:23:37.856Z,4.47
2022-11-27T07:26:06.387Z,4.65
2022-11-27T07:28:33.963Z,4.55
2022-11-27T07:31:03.256Z,4.80
2022-11-27T07:36:27.694Z,8.07
2022-11-27T07:38:55.581Z,5.68
2022-11-27T07:41:30.592Z,8.75
2022-11-27T07:44:01.413Z,5.90
2022-11-27T07:49:30.441Z,7.28
2022-11-27T07:51:58.286Z,5.88
2022-11-27T07:54:26.530Z,5.10
2022-11-27T07:56:54.143Z,4.82
2022-11-27T07:59:22.262Z,6.07
2022-11-27T08:01:51.042Z,4.28
2022-11-27T08:04:22.186Z,4.75
2022-11-27T08:06:51.509Z,4.75
2022-11-27T08:09:19.160Z,4.35
2022-11-27T08:11:50.144Z,4.88
2022-11-27T08:14:40.844Z,6.05
2022-11-27T08:17:45.633Z,7.28
2022-11-27T08:20:16.244Z,7.13
2022-11-27T08:22:45.251Z,4.95
2022-11-27T08:25:13.834Z,5.10
2022-11-27T08:30:56.888Z,3.97
2022-11-27T08:33:24.554Z,6.10
2022-11-27T08:36:16.317Z,9.05
2022-11-27T08:38:57.411Z,8.45
2022-11-27T08:41:27.257Z,8.55
2022-11-27T08:44:00.484Z,6.35
2022-11-27T08:46:29.132Z,5.83
2022-11-27T08:48:56.764Z,5.57
2022-11-27T08:51:24.550Z,5.50
2022-11-27T08:53:53.228Z,5.40
2022-11-27T08:56:23.270Z,5.20
2022-11-27T08:58:51.048Z,4.38
2022-11-27T09:01:19.401Z,4.30
2022-11-27T09:03:47.102Z,4.18
2022-11-27T09:06:16.822Z,4.03
2022-11-27T09:08:44.578Z,4.57
2022-11-27T09:11:12.809Z,4.90
2022-11-27T09:13:42.152Z,4.00
2022-11-27T09:16:11.102Z,4.65
2022-11-27T09:18:38.888Z,5.35
2022-11-27T09:21:07.711Z,4.25
2022-11-27T09:23:35.455Z,4.25
2022-11-27T09:26:03.853Z,4.50
2022-11-27T09:28:31.948Z,4.20
2022-11-27T09:31:04.881Z,4.03
2022-11-27T09:33:33.080Z,3.67
2022-11-27T09:36:09.691Z,4.70
2022-11-27T09:38:37.499Z,4.18
2022-11-27T09:41:08.570Z,3.90
2022-11-27T09:43:37.360Z,4.13
2022-11-27T09:46:09.336Z,3.85
2022-11-27T09:48:39.781Z,3.60
2022-11-27T09:51:10.178Z,4.20
2022-11-27T09:53:42.664Z,3.88
2022-11-27T09:56:12.641Z,4.10
2022-11-27T09:58:41.046Z,4.13
2022-11-27T10:01:14.392Z,4.15
2022-11-27T10:03:43.080Z,4.45
2022-11-27T10:06:21.150Z,3.72
2022-11-27T10:08:52.062Z,3.60
2022-11-27T10:11:23.097Z,4.32
2022-11-27T10:13:58.340Z,4.30
2022-11-27T10:16:31.677Z,3.90
2022-11-27T10:19:04.724Z,3.75
2022-11-27T10:21:36.884Z,4.15
2022-11-27T10:24:08.842Z,3.17
2022-11-27T10:26:39.978Z,3.53
2022-11-27T10:29:13.320Z,3.50
2022-11-27T10:31:44.801Z,3.40
2022-11-27T10:34:21.423Z,3.70
2022-11-27T10:36:50.090Z,3.67
2022-11-27T10:39:21.476Z,3.83
2022-11-27T10:41:52.361Z,3.85
2022-11-27T10:44:24.219Z,5.13
2022-11-27T10:49:51.373Z,3.30
2022-11-27T10:52:19.943Z,3.00
2022-11-27T10:55:01.484Z,3.00
2022-11-27T10:57:43.713Z,4.13
2022-11-27T11:00:14.714Z,3.90
2022-11-27T11:02:42.910Z,3.78
2022-11-27T11:05:35.095Z,4.03
2022-11-27T11:08:02.477Z,3.95
2022-11-27T11:10:35.431Z,3.45
2022-11-27T11:13:18.140Z,3.22
2022-11-27T11:15:51.976Z,3.15
2022-11-27T11:18:19.964Z,3.15
2022-11-27T11:20:52.976Z,3.70
2022-11-27T11:23:26.240Z,3.33
2022-11-27T11:25:56.124Z,3.90
2022-11-27T11:28:27.259Z,3.85
2022-11-27T11:30:57.604Z,3.70
2022-11-27T11:33:25.751Z,3.53
2022-11-27T11:35:55.510Z,3.70
2022-11-27T11:38:26.834Z,3.38
2022-11-27T11:41:13.026Z,3.28
2022-11-27T11:43:41.444Z,3.53
2022-11-27T11:46:17.456Z,3.28
2022-11-27T11:48:53.904Z,3.63
2022-11-27T11:51:29.160Z,3.55
2022-11-27T11:54:01.693Z,3.80
2022-11-27T11:56:32.500Z,3.90
2022-11-27T11:59:03.166Z,4.75
2022-11-27T12:01:41.638Z,4.65
2022-11-27T12:04:18.170Z,3.33
2022-11-27T12:06:55.689Z,3.83
2022-11-27T12:09:30.723Z,3.95
2022-11-27T12:12:01.787Z,4.22
2022-11-27T12:14:36.752Z,5.95
2022-11-27T12:17:07.304Z,4.72
2022-11-27T12:19:44.333Z,4.28
2022-11-27T12:22:18.019Z,4.40
2022-11-27T12:24:50.750Z,4.90
2022-11-27T12:27:24.160Z,4.38
2022-11-27T12:30:02.183Z,4.10
2022-11-27T12:32:34.874Z,4.07
2022-11-27T12:35:08.536Z,4.13
2022-11-27T12:37:41.372Z,4.75
2022-11-27T12:40:20.183Z,3.83
2022-11-27T12:42:54.258Z,4.20
2022-11-27T12:45:23.398Z,4.53
2022-11-27T12:47:54.409Z,4.15
2022-11-27T12:50:26.047Z,3.70
2022-11-27T12:53:06.003Z,3.78
2022-11-27T12:55:34.561Z,4.30
2022-11-27T12:58:08.066Z,3.95
2022-11-27T13:00:40.562Z,4.20
2022-11-27T13:03:14.751Z,3.85
2022-11-27T13:08:16.480Z,4.78
2022-11-27T13:10:47.650Z,3.83
2022-11-27T13:13:18.250Z,3.67
2022-11-27T13:15:49.917Z,3.63
2022-11-27T13:18:20.362Z,3.80
2022-11-27T13:20:52.298Z,3.65
2022-11-27T13:23:21.706Z,4.00
2022-11-27T13:25:50.667Z,4.28
2022-11-27T13:28:23.961Z,3.72
2022-11-27T13:30:52.710Z,4.20
2022-11-27T13:33:27.551Z,4.40
2022-11-27T13:35:55.236Z,3.40
2022-11-27T13:38:25.249Z,4.32
2022-11-27T13:40:54.719Z,4.38
2022-11-27T13:43:29.019Z,3.63
2022-11-27T13:46:11.977Z,4.68
2022-11-27T13:48:41.760Z,4.93
2022-11-27T13:51:11.184Z,4.00
2022-11-27T13:53:40.933Z,4.22
2022-11-27T13:56:09.171Z,4.35
2022-11-27T13:58:37.652Z,4.05
2022-11-27T14:01:18.689Z,4.38
2022-11-27T14:03:46.960Z,4.30
2022-11-27T14:06:19.057Z,4.40
2022-11-27T14:08:52.456Z,4.47
2022-11-27T14:11:31.567Z,4.60
2022-11-27T14:13:59.833Z,4.25
2022-11-27T14:16:29.281Z,5.40
2022-11-27T14:18:58.442Z,4.78
2022-11-27T14:21:27.021Z,5.43
2022-11-27T14:23:59.140Z,6.03
2022-11-27T14:26:26.847Z,5.32
2022-11-27T14:28:55.683Z,4.05
2022-11-27T14:31:35.686Z,4.57
2022-11-27T14:34:24.687Z,6.15
2022-11-27T14:39:41.101Z,5.30
2022-11-27T14:42:23.988Z,4.20
2022-11-27T14:45:02.646Z,4.43
2022-11-27T14:47:30.860Z,4.65
2022-11-27T14:49:59.089Z,4.72
2022-11-27T14:52:28.559Z,4.88
2022-11-27T14:55:02.373Z,3.85
2022-11-27T14:57:30.674Z,4.03
2022-11-27T15:00:07.267Z,4.45
2022-11-27T15:02:35.154Z,4.35
2022-11-27T15:05:08.413Z,4.28
2022-11-27T15:07:45.355Z,5.00
2022-11-27T15:10:33.561Z,4.95
2022-11-27T15:13:05.795Z,5.22
2022-11-27T15:15:36.532Z,5.53
2022-11-27T15:21:40.429Z,5.22
2022-11-27T15:24:24.988Z,4.50
2022-11-27T15:27:19.325Z,4.65
2022-11-27T15:30:08.483Z,5.03
2022-11-27T15:33:09.226Z,5.20
2022-11-27T15:38:37.054Z,5.07
2022-11-27T15:41:08.921Z,4.60
2022-11-27T15:43:36.559Z,3.90
2022-11-27T15:46:06.280Z,4.22
2022-11-27T15:48:37.127Z,4.28
2022-11-27T15:51:06.781Z,4.60
2022-11-27T15:53:34.393Z,4.25
2022-11-27T15:56:01.903Z,4.15
2022-11-27T15:58:29.547Z,4.15
2022-11-27T16:01:00.222Z,3.85
2022-11-27T16:04:13.830Z,3.72
2022-11-27T16:06:44.151Z,3.85
2022-11-27T16:09:49.337Z,3.97
2022-11-27T16:12:25.299Z,3.72
2022-11-27T16:14:52.820Z,3.88
2022-11-27T16:17:20.502Z,4.22
2022-11-27T16:26:38.321Z,3.95
2022-11-27T16:29:20.817Z,4.43
2022-11-27T16:31:48.559Z,3.92
2022-11-27T16:34:17.138Z,3.65
2022-11-27T16:36:44.862Z,3.75
2022-11-27T16:39:12.937Z,3.50
2022-11-27T16:41:41.832Z,3.50
2022-11-27T16:44:10.996Z,4.20
2022-11-27T16:46:39.130Z,3.50
2022-11-27T16:49:07.508Z,3.78
2022-11-27T16:51:35.792Z,4.10
2022-11-27T16:54:04.913Z,4.05
2022-11-27T16:56:33.448Z,4.15
2022-11-27T16:59:03.536Z,3.88
2022-11-27T17:01:32.349Z,3.67
2022-11-27T17:04:00.192Z,5.97
2022-11-27T17:06:28.801Z,4.55
2022-11-27T17:08:56.698Z,3.78
2022-11-27T17:11:25.794Z,4.53
2022-11-27T17:13:56.408Z,4.13
2022-11-27T17:16:25.732Z,4.72
2022-11-27T17:18:53.443Z,3.80
2022-11-27T17:21:24.288Z,4.53
2022-11-27T17:23:52.019Z,3.97
2022-11-27T17:26:21.855Z,4.43
2022-11-27T17:28:50.224Z,4.18
2022-11-27T17:31:19.291Z,4.38
2022-11-27T17:33:48.501Z,4.00
2022-11-27T17:36:16.656Z,4.35
2022-11-27T17:38:44.215Z,4.20
2022-11-27T17:41:12.472Z,3.67
2022-11-27T17:43:40.889Z,6.68
2022-11-27T17:46:09.240Z,5.05
2022-11-27T17:48:37.234Z,6.57
2022-11-27T17:51:06.677Z,4.47
2022-11-27T17:53:34.319Z,5.53
2022-11-27T17:56:05.237Z,4.70
2022-11-27T17:58:32.747Z,5.70
2022-11-27T18:01:03.095Z,4.35
2022-11-27T18:03:30.760Z,4.70
2022-11-27T18:05:58.404Z,4.20
2022-11-27T18:08:27.244Z,5.10
2022-11-27T18:10:54.811Z,4.50
2022-11-27T18:13:22.419Z,4.25
2022-11-27T18:15:50.266Z,4.30
2022-11-27T18:18:17.858Z,4.25
2022-11-27T18:20:46.703Z,4.05
2022-11-27T18:23:15.249Z,4.40
2022-11-27T18:25:48.790Z,4.13
2022-11-27T18:28:33.571Z,4.05
2022-11-27T18:33:31.058Z,4.22
2022-11-27T18:35:59.341Z,5.05
2022-11-27T18:38:26.962Z,4.80
2022-11-27T18:41:21.615Z,4.88
2022-11-27T18:43:51.783Z,4.30
2022-11-27T18:46:19.926Z,4.57
2022-11-27T18:48:48.192Z,4.95
2022-11-27T18:51:16.699Z,4.68
2022-11-27T18:53:44.974Z,5.13
2022-11-27T18:56:13.987Z,4.72
2022-11-27T18:58:44.944Z,4.07
2022-11-27T19:01:15.483Z,3.65
2022-11-27T19:03:43.362Z,4.22
2022-11-27T19:06:11.788Z,4.53
2022-11-27T19:08:39.759Z,3.72
2022-11-27T19:11:17.817Z,4.55
2022-11-27T19:13:48.745Z,4.22
2022-11-27T19:16:18.982Z,3.83
2022-11-27T19:18:48.357Z,4.50
2022-11-27T19:21:16.966Z,4.43
2022-11-27T19:23:44.595Z,4.57
2022-11-27T19:26:13.835Z,4.70
2022-11-27T19:28:43.276Z,4.50
2022-11-27T19:31:11.649Z,4.75
2022-11-27T19:33:41.387Z,4.00
2022-11-27T19:36:10.487Z,4.03
2022-11-27T19:38:38.376Z,4.00
2022-11-27T19:41:09.318Z,4.88
2022-11-27T19:43:37.394Z,4.13
2022-11-27T19:46:12.883Z,3.92
2022-11-27T19:48:41.821Z,5.18
2022-11-27T19:51:59.958Z,4.00
2022-11-27T19:54:19.324Z,3.75
2022-11-27T19:56:47.004Z,4.45
2022-11-27T19:59:14.568Z,3.47
2022-11-27T20:01:42.659Z,3.78
2022-11-27T20:04:12.349Z,4.07
2022-11-27T20:06:43.130Z,3.70
2022-11-27T20:09:14.020Z,4.00
2022-11-27T20:11:41.737Z,3.60
2022-11-27T20:14:09.373Z,3.85
2022-11-27T20:16:40.245Z,3.92
2022-11-27T20:19:10.778Z,3.90
2022-11-27T20:21:46.538Z,3.70
2022-11-27T20:24:17.546Z,4.00
2022-11-27T20:26:52.979Z,3.97
2022-11-27T20:29:26.905Z,3.90
2022-11-27T20:31:58.774Z,3.90
2022-11-27T20:34:26.723Z,4.15
2022-11-27T20:37:02.541Z,4.47
2022-11-27T20:39:30.533Z,3.65
2022-11-27T20:42:06.152Z,4.18
2022-11-27T20:44:36.704Z,4.00
2022-11-27T20:47:14.748Z,3.97
2022-11-27T20:49:42.570Z,4.15
2022-11-27T20:52:13.840Z,3.63
2022-11-27T20:54:44.146Z,4.85
2022-11-27T20:57:14.512Z,4.03
2022-11-27T20:59:45.121Z,4.28
2022-11-27T21:02:12.897Z,3.90
2022-11-27T21:04:49.686Z,4.75
2022-11-27T21:07:25.591Z,4.18
2022-11-27T21:09:53.468Z,4.85
2022-11-27T21:12:24.807Z,4.28
2022-11-27T21:14:53.097Z,4.18
2022-11-27T21:17:24.269Z,4.45
2022-11-27T21:19:59.318Z,4.20
2022-11-27T21:22:29.758Z,3.92
2022-11-27T21:24:57.463Z,4.88
2022-11-27T21:27:49.206Z,5.05
2022-11-27T21:30:26.442Z,4.22
2022-11-27T21:32:57.882Z,4.82
2022-11-27T21:35:31.426Z,5.40
2022-11-27T21:38:06.612Z,4.28
2022-11-27T21:40:37.500Z,4.50
2022-11-27T21:43:11.024Z,3.83
2022-11-27T21:45:43.935Z,4.93
2022-11-27T21:48:14.346Z,4.38
2022-11-27T21:50:42.205Z,4.43
2022-11-27T21:53:16.507Z,4.47
2022-11-27T21:55:44.505Z,4.53
2022-11-27T21:58:12.689Z,3.63
2022-11-27T22:00:44.484Z,4.07
2022-11-27T22:03:12.019Z,3.97
2022-11-27T22:05:49.504Z,4.03
2022-11-27T22:08:18.419Z,4.18
2022-11-27T22:10:46.378Z,3.63
2022-11-27T22:13:16.077Z,4.03
2022-11-27T22:15:43.621Z,3.55
2022-11-27T22:18:13.779Z,4.30
2022-11-27T22:20:41.380Z,3.88
2022-11-27T22:23:08.964Z,4.13
2022-11-27T22:25:39.846Z,3.75
2022-11-27T22:28:07.682Z,3.47
2022-11-27T22:30:37.777Z,4.47
2022-11-27T22:33:07.729Z,4.32
2022-11-27T22:35:35.377Z,3.67
2022-11-27T22:38:04.051Z,4.30
2022-11-27T22:40:31.620Z,3.40
2022-11-27T22:43:00.569Z,3.65
2022-11-27T22:45:28.233Z,3.28
2022-11-27T22:47:55.881Z,2.85
2022-11-27T22:50:23.455Z,3.83
2022-11-27T22:52:55.720Z,4.25
2022-11-27T22:55:26.423Z,3.90
2022-11-27T22:57:54.032Z,3.30
2022-11-27T23:00:23.751Z,3.90
2022-11-27T23:02:51.423Z,3.30
2022-11-27T23:05:18.918Z,3.97
2022-11-27T23:07:46.509Z,4.07
2022-11-27T23:10:14.093Z,3.63
2022-11-27T23:12:41.615Z,3.67
2022-11-27T23:15:11.823Z,3.35
2022-11-27T23:17:40.765Z,3.42
2022-11-27T23:20:09.451Z,3.58
2022-11-27T23:22:36.974Z,2.88
2022-11-27T23:25:04.616Z,3.85
2022-11-27T23:27:32.376Z,3.60
2022-11-27T23:30:02.041Z,3.33
2022-11-27T23:32:29.615Z,3.50
2022-11-27T23:34:58.497Z,4.10
2022-11-27T23:37:26.102Z,4.15
2022-11-27T23:39:53.618Z,3.13
2022-11-27T23:42:21.123Z,2.83
2022-11-27T23:44:48.792Z,3.35
2022-11-27T23:47:16.330Z,3.33
2022-11-27T23:49:43.880Z,3.28
2022-11-27T23:52:16.944Z,2.75
2022-11-27T23:54:44.860Z,4.22
2022-11-27T23:57:12.409Z,3.80
2022-11-27T23:59:40.008Z,3.97
